Mukayris, Yemen
Current Conditions -  °F | °C
As of 6:00 AM on Sunday 26 Oct 2014 (Local Time) from OYAA Reporting Station
Clear Clear  
Wind Chill: 77°   Ceiling: Unl
Heat Index: 77°   Visibility: 6mi
Dew Point: 39°   Wind: 5mph
Humidity: 26%   Direction: 330°NNW
Pressure: 29.85"   Gusts: NA
Location:  13.94°N, 45.67°E
Report Text: OYAA 260300Z 33004KT CAVOK 25/04 Q1011
Loading
Personal Weather Stations






























Interactive Weather Map
Tropical Storm Tracking
New forecast layout! Learn more

10-Day Weather Forecast

Advertisements
Track Severe Weather on mobile